Triplenet — WDH6693 — position and weather

sailwx.info

Track history (hours):
 
Tides and Currents Weather Stations Pressure Air Temp Water Temp Dewpoint Dewpoint Depression Visibility Wind Speed Wind Dir Waves Ship Positions

Triplenet

Owner: Card Sound Yachts,Inc., Key Largo, FL. More information available from US FCC via Universal Licensing System and Coast Guard Vessel Documentation Center.

Last reported at 2018-Jul-16 20:36 UTC. Time now 2018-Jul-17 05:51 UTC.
Position N 40°47' W 073°60'.

Length 31 m.

Type: Pleasure craft. MMSI: 367640690.

Date/timePositionNaut miles runAvg speedWind from/ knotsBaromVisibWave heightAir tempDewpointWater temp
2018-Jul-16 20:36N 40°47' W 073°60'1 6.8
2018-Jul-16 20:28N 40°46' W 074°00'611.8
2018-Jul-16 20:00N 40°41' W 074°02'5512.6
2018-Jul-16 15:40N 39°46' W 073°58'314.7
2018-Jul-16 15:29N 39°44' W 073°59'714.5
2018-Jul-16 15:00N 39°38' W 074°05'3613.8
2018-Jul-16 12:24N 39°09' W 074°33'913.1
2018-Jul-16 11:45N 39°03' W 074°40'512.2
2018-Jul-16 11:21N 38°59' W 074°44'511.9
2018-Jul-16 10:57N 38°57' W 074°49'4 0.1
2018-Jul-14 15:21N 38°57' W 074°54'2 5.7
2018-Jul-14 15:00N 38°56' W 074°52'1110.1
2018-Jul-14 13:56N 38°46' W 074°48'511.7
2018-Jul-14 13:30N 38°41' W 074°48'611.8
2018-Jul-14 13:00N 38°35' W 074°46'5 8.6
2018-Jul-14 12:22N 38°30' W 074°47'33 9.4
2018-Jul-14 08:54N 37°59' W 074°60'4 9.0
2018-Jul-14 08:28N 37°56' W 075°02'  
2018-Jul-11 21:59N 32°47' W 079°57'0 0.0
2018-Jul-11 21:29N 32°47' W 079°57'0 0.0
2018-Jul-11 20:59N 32°47' W 079°57'0 0.0
2018-Jul-11 20:29N 32°47' W 079°57'0 0.0
2018-Jul-11 19:59N 32°47' W 079°57'0 0.0
2018-Jul-11 19:29N 32°47' W 079°57'0 0.0
2018-Jul-11 18:59N 32°47' W 079°57'0 0.0
2018-Jul-11 18:26N 32°47' W 079°57'0 0.0
2018-Jul-11 17:59N 32°47' W 079°57'0 0.0
2018-Jul-11 17:23N 32°47' W 079°57'0 0.0
2018-Jul-11 16:59N 32°47' W 079°57'0 0.0
2018-Jul-11 16:29N 32°47' W 079°57'0 0.0
2018-Jul-11 15:59N 32°47' W 079°57'0 0.0
2018-Jul-11 15:29N 32°47' W 079°57'0 0.0
2018-Jul-11 14:59N 32°47' W 079°57'0 0.0
2018-Jul-11 14:29N 32°47' W 079°57'0 0.0
2018-Jul-11 13:59N 32°47' W 079°57'0 0.0
2018-Jul-11 13:29N 32°47' W 079°57'0 0.0
2018-Jul-11 12:59N 32°47' W 079°57'0 0.0
2018-Jul-11 12:29N 32°47' W 079°57'0 0.0
2018-Jul-11 11:59N 32°47' W 079°57'0 0.0
2018-Jul-11 11:29N 32°47' W 079°57'0 0.0
2018-Jul-11 10:59N 32°47' W 079°57'0 0.0
2018-Jul-11 10:30N 32°47' W 079°57'0 0.0
2018-Jul-11 10:00N 32°47' W 079°57'0 0.0
2018-Jul-11 09:27N 32°47' W 079°57'0 0.0
2018-Jul-11 09:00N 32°47' W 079°57'0 0.0
2018-Jul-11 08:30N 32°47' W 079°57'0 0.0
2018-Jul-11 08:00N 32°47' W 079°57'0 0.0
2018-Jul-11 07:30N 32°47' W 079°57'0 0.0
2018-Jul-11 07:00N 32°47' W 079°57'0 0.0
2018-Jul-10 21:09N 32°47' W 079°57'0 0.0
2018-Jul-10 21:00N 32°47' W 079°57'0 0.0
2018-Jul-10 20:30N 32°47' W 079°57'0 0.0
2018-Jul-10 20:00N 32°47' W 079°57'0 0.0
2018-Jul-10 19:30N 32°47' W 079°57'0 0.0
2018-Jul-10 18:54N 32°47' W 079°57'0 0.0
2018-Jul-10 18:30N 32°47' W 079°57'0 0.0
2018-Jul-10 18:00N 32°47' W 079°57'0 0.0
2018-Jul-10 17:30N 32°47' W 079°57'0 0.0
2018-Jul-10 17:00N 32°47' W 079°57'0 0.0
2018-Jul-10 16:30N 32°47' W 079°57'0 0.0
2018-Jul-10 16:00N 32°47' W 079°57'0 0.0
2018-Jul-10 15:30N 32°47' W 079°57'0 0.0
2018-Jul-10 15:00N 32°47' W 079°57'0 0.0
2018-Jul-10 14:30N 32°47' W 079°57'0 0.0
2018-Jul-10 14:00N 32°47' W 079°57'0 0.0
2018-Jul-10 13:30N 32°47' W 079°57'0 0.0
2018-Jul-10 13:00N 32°47' W 079°57'0 0.0
2018-Jul-10 12:30N 32°47' W 079°57'0 0.0
2018-Jul-10 12:00N 32°47' W 079°57'0 0.0
2018-Jul-10 11:30N 32°47' W 079°57'0 0.0
2018-Jul-10 10:59N 32°47' W 079°57'0 0.0
2018-Jul-10 10:29N 32°47' W 079°57'0 0.0
2018-Jul-10 09:59N 32°47' W 079°57'0 0.0
2018-Jul-10 09:29N 32°47' W 079°57'0 0.0
2018-Jul-10 08:59N 32°47' W 079°57'0 0.0
2018-Jul-10 08:29N 32°47' W 079°57'0 0.0
2018-Jul-10 07:59N 32°47' W 079°57'0 0.0
2018-Jul-10 07:29N 32°47' W 079°57'0 0.0
2018-Jul-10 06:56N 32°47' W 079°57'0 0.0
2018-Jul-10 06:29N 32°47' W 079°57'0 0.0
2018-Jul-10 05:59N 32°47' W 079°57'0 0.0
2018-Jul-10 05:29N 32°47' W 079°57'0 0.0
2018-Jul-10 04:59N 32°47' W 079°57'0 0.0
2018-Jul-10 04:28N 32°47' W 079°57'0 0.0
2018-Jul-10 03:59N 32°47' W 079°57'0 0.0
2018-Jul-10 03:28N 32°47' W 079°57'0 0.0
2018-Jul-10 02:58N 32°47' W 079°57'0 0.0
2018-Jul-10 02:28N 32°47' W 079°57'0 0.0
2018-Jul-10 01:59N 32°47' W 079°57'0 0.0
2018-Jul-10 01:28N 32°47' W 079°57'0 0.0
2018-Jul-10 00:58N 32°47' W 079°57'0 0.0
2018-Jul-10 00:28N 32°47' W 079°57'0 0.0
2018-Jul-09 23:58N 32°47' W 079°57'0 0.0
2018-Jul-09 21:04N 32°47' W 079°57'0 0.0
2018-Jul-09 20:55N 32°47' W 079°57'0 0.0
2018-Jul-09 20:28N 32°47' W 079°57'0 0.0
2018-Jul-09 19:59N 32°47' W 079°57'0 0.0
2018-Jul-09 19:28N 32°47' W 079°57'0 0.0
2018-Jul-09 18:58N 32°47' W 079°57'0 0.0
2018-Jul-09 18:28N 32°47' W 079°57'0 0.0
2018-Jul-09 17:59N 32°47' W 079°57'0 0.0
2018-Jul-09 17:28N 32°47' W 079°57'0 0.0
2018-Jul-09 16:58N 32°47' W 079°57'0 0.0
2018-Jul-09 16:28N 32°47' W 079°57'0 0.0
2018-Jul-09 15:58N 32°47' W 079°57'0 0.0
2018-Jul-09 15:28N 32°47' W 079°57'0 0.0
2018-Jul-09 14:58N 32°47' W 079°57'0 0.0
2018-Jul-09 14:28N 32°47' W 079°57'0 0.0
2018-Jul-09 13:58N 32°47' W 079°57'0 0.0
2018-Jul-09 13:28N 32°47' W 079°57'0 0.0
2018-Jul-09 12:58N 32°47' W 079°57'0 0.0
2018-Jul-09 12:28N 32°47' W 079°57'0 0.0
2018-Jul-09 11:55N 32°47' W 079°57'0 0.0
2018-Jul-09 11:28N 32°47' W 079°57'0 0.0
2018-Jul-09 10:58N 32°47' W 079°57'0 0.0
2018-Jul-09 10:28N 32°47' W 079°57'0 0.0
2018-Jul-09 09:58N 32°47' W 079°57'0 0.0
2018-Jul-09 09:28N 32°47' W 079°57'0 0.0
2018-Jul-09 08:58N 32°47' W 079°57'0 0.0
2018-Jul-09 08:28N 32°47' W 079°57'0 0.0
2018-Jul-09 07:58N 32°47' W 079°57'0 0.0
2018-Jul-09 07:28N 32°47' W 079°57'0 0.0
2018-Jul-09 06:58N 32°47' W 079°57'0 0.0
2018-Jul-09 06:28N 32°47' W 079°57'0 0.0
2018-Jul-09 05:58N 32°47' W 079°57'0 0.0
2018-Jul-09 05:28N 32°47' W 079°57'0 0.0
2018-Jul-09 04:58N 32°47' W 079°57'0 0.0
2018-Jul-09 04:28N 32°47' W 079°57'0 0.0
2018-Jul-09 03:58N 32°47' W 079°57'0 0.0
2018-Jul-09 03:28N 32°47' W 079°57'0 0.0
2018-Jul-09 02:58N 32°47' W 079°57'0 0.0
2018-Jul-09 02:28N 32°47' W 079°57'0 0.0
2018-Jul-09 01:58N 32°47' W 079°57'0 0.0
2018-Jul-09 01:28N 32°47' W 079°57'0 0.0
2018-Jul-09 00:58N 32°47' W 079°57'0 0.0
2018-Jul-09 00:28N 32°47' W 079°57'0 0.0
2018-Jul-08 23:58N 32°47' W 079°57'0 0.0
2018-Jul-08 23:28N 32°47' W 079°57'0 0.0
2018-Jul-08 22:58N 32°47' W 079°57'0 0.0
2018-Jul-08 22:28N 32°47' W 079°57'0 0.0
2018-Jul-08 21:55N 32°47' W 079°57'0 0.0
2018-Jul-08 21:28N 32°47' W 079°57'0 0.0
2018-Jul-08 20:58N 32°47' W 079°57'0 0.0
2018-Jul-08 20:28N 32°47' W 079°57'0 0.0
2018-Jul-08 19:58N 32°47' W 079°57'0 0.0
2018-Jul-08 19:28N 32°47' W 079°57'0 0.0
2018-Jul-08 18:58N 32°47' W 079°57'0 0.0
2018-Jul-08 18:28N 32°47' W 079°57'0 0.0
2018-Jul-08 17:58N 32°47' W 079°57'0 0.0
2018-Jul-08 17:25N 32°47' W 079°57'0 0.0
2018-Jul-08 16:58N 32°47' W 079°57'0 0.0
2018-Jul-08 16:28N 32°47' W 079°57'0 0.0
2018-Jul-08 15:58N 32°47' W 079°57'0 0.0
2018-Jul-08 15:28N 32°47' W 079°57'0 0.0
2018-Jul-08 14:58N 32°47' W 079°57'0 0.0
2018-Jul-08 14:28N 32°47' W 079°57'0 0.0
2018-Jul-08 13:58N 32°47' W 079°57'0 0.0
2018-Jul-08 13:28N 32°47' W 079°57'0 0.0
2018-Jul-08 12:55N 32°47' W 079°57'0 0.0
2018-Jul-08 12:28N 32°47' W 079°57'0 0.0
2018-Jul-08 11:58N 32°47' W 079°57'0 0.0
2018-Jul-08 11:28N 32°47' W 079°57'0 0.0
2018-Jul-08 10:58N 32°47' W 079°57'0 0.0
2018-Jul-08 10:28N 32°47' W 079°57'0 0.0
2018-Jul-08 09:58N 32°47' W 079°57'0 0.0
2018-Jul-08 09:28N 32°47' W 079°57'0 0.0
2018-Jul-08 08:58N 32°47' W 079°57'0 0.0
2018-Jul-08 08:28N 32°47' W 079°57'0 0.0
2018-Jul-08 07:58N 32°47' W 079°57'0 0.0
2018-Jul-08 07:28N 32°47' W 079°57'0 0.0
2018-Jul-08 06:58N 32°47' W 079°57'0 0.0
2018-Jul-08 06:28N 32°47' W 079°57'0 0.0
2018-Jul-08 05:58N 32°47' W 079°57'0 0.0
2018-Jul-08 05:28N 32°47' W 079°57'0 0.0
2018-Jul-08 04:58N 32°47' W 079°57'0 0.1
2018-Jul-08 04:30N 32°47' W 079°57'  
Track history (hours):
 
Tides and Currents Weather Stations Pressure Air Temp Water Temp Dewpoint Dewpoint Depression Visibility Wind Speed Wind Dir Waves Ship Positions

Triplenet

Owner: Card Sound Yachts,Inc., Key Largo, FL. More information available from US FCC via Universal Licensing System and Coast Guard Vessel Documentation Center.

Last reported at 2018-Jul-16 20:36 UTC. Time now 2018-Jul-17 05:51 UTC.
Position N 40°47' W 073°60'.

Length 31 m.

Type: Pleasure craft. MMSI: 367640690.

Date/timePositionNaut miles runAvg speedWind from/ knotsBaromVisibWave heightAir tempDewpointWater temp
2018-Jul-16 20:36N 40°47' W 073°60'1 6.8
2018-Jul-16 20:28N 40°46' W 074°00'611.8
2018-Jul-16 20:00N 40°41' W 074°02'5512.6
2018-Jul-16 15:40N 39°46' W 073°58'314.7
2018-Jul-16 15:29N 39°44' W 073°59'714.5
2018-Jul-16 15:00N 39°38' W 074°05'3613.8
2018-Jul-16 12:24N 39°09' W 074°33'913.1
2018-Jul-16 11:45N 39°03' W 074°40'512.2
2018-Jul-16 11:21N 38°59' W 074°44'511.9
2018-Jul-16 10:57N 38°57' W 074°49'4 0.1
2018-Jul-14 15:21N 38°57' W 074°54'2 5.7
2018-Jul-14 15:00N 38°56' W 074°52'1110.1
2018-Jul-14 13:56N 38°46' W 074°48'511.7
2018-Jul-14 13:30N 38°41' W 074°48'611.8
2018-Jul-14 13:00N 38°35' W 074°46'5 8.6
2018-Jul-14 12:22N 38°30' W 074°47'33 9.4
2018-Jul-14 08:54N 37°59' W 074°60'4 9.0
2018-Jul-14 08:28N 37°56' W 075°02'  
2018-Jul-11 21:59N 32°47' W 079°57'0 0.0
2018-Jul-11 21:29N 32°47' W 079°57'0 0.0
2018-Jul-11 20:59N 32°47' W 079°57'0 0.0
2018-Jul-11 20:29N 32°47' W 079°57'0 0.0
2018-Jul-11 19:59N 32°47' W 079°57'0 0.0
2018-Jul-11 19:29N 32°47' W 079°57'0 0.0
2018-Jul-11 18:59N 32°47' W 079°57'0 0.0
2018-Jul-11 18:26N 32°47' W 079°57'0 0.0
2018-Jul-11 17:59N 32°47' W 079°57'0 0.0
2018-Jul-11 17:23N 32°47' W 079°57'0 0.0
2018-Jul-11 16:59N 32°47' W 079°57'0 0.0
2018-Jul-11 16:29N 32°47' W 079°57'0 0.0
2018-Jul-11 15:59N 32°47' W 079°57'0 0.0
2018-Jul-11 15:29N 32°47' W 079°57'0 0.0
2018-Jul-11 14:59N 32°47' W 079°57'0 0.0
2018-Jul-11 14:29N 32°47' W 079°57'0 0.0
2018-Jul-11 13:59N 32°47' W 079°57'0 0.0
2018-Jul-11 13:29N 32°47' W 079°57'0 0.0
2018-Jul-11 12:59N 32°47' W 079°57'0 0.0
2018-Jul-11 12:29N 32°47' W 079°57'0 0.0
2018-Jul-11 11:59N 32°47' W 079°57'0 0.0
2018-Jul-11 11:29N 32°47' W 079°57'0 0.0
2018-Jul-11 10:59N 32°47' W 079°57'0 0.0
2018-Jul-11 10:30N 32°47' W 079°57'0 0.0
2018-Jul-11 10:00N 32°47' W 079°57'0 0.0
2018-Jul-11 09:27N 32°47' W 079°57'0 0.0
2018-Jul-11 09:00N 32°47' W 079°57'0 0.0
2018-Jul-11 08:30N 32°47' W 079°57'0 0.0
2018-Jul-11 08:00N 32°47' W 079°57'0 0.0
2018-Jul-11 07:30N 32°47' W 079°57'0 0.0
2018-Jul-11 07:00N 32°47' W 079°57'0 0.0
2018-Jul-10 21:09N 32°47' W 079°57'0 0.0
2018-Jul-10 21:00N 32°47' W 079°57'0 0.0
2018-Jul-10 20:30N 32°47' W 079°57'0 0.0
2018-Jul-10 20:00N 32°47' W 079°57'0 0.0
2018-Jul-10 19:30N 32°47' W 079°57'0 0.0
2018-Jul-10 18:54N 32°47' W 079°57'0 0.0
2018-Jul-10 18:30N 32°47' W 079°57'0 0.0
2018-Jul-10 18:00N 32°47' W 079°57'0 0.0
2018-Jul-10 17:30N 32°47' W 079°57'0 0.0
2018-Jul-10 17:00N 32°47' W 079°57'0 0.0
2018-Jul-10 16:30N 32°47' W 079°57'0 0.0
2018-Jul-10 16:00N 32°47' W 079°57'0 0.0
2018-Jul-10 15:30N 32°47' W 079°57'0 0.0
2018-Jul-10 15:00N 32°47' W 079°57'0 0.0
2018-Jul-10 14:30N 32°47' W 079°57'0 0.0
2018-Jul-10 14:00N 32°47' W 079°57'0 0.0
2018-Jul-10 13:30N 32°47' W 079°57'0 0.0
2018-Jul-10 13:00N 32°47' W 079°57'0 0.0
2018-Jul-10 12:30N 32°47' W 079°57'0 0.0
2018-Jul-10 12:00N 32°47' W 079°57'0 0.0
2018-Jul-10 11:30N 32°47' W 079°57'0 0.0
2018-Jul-10 10:59N 32°47' W 079°57'0 0.0
2018-Jul-10 10:29N 32°47' W 079°57'0 0.0
2018-Jul-10 09:59N 32°47' W 079°57'0 0.0
2018-Jul-10 09:29N 32°47' W 079°57'0 0.0
2018-Jul-10 08:59N 32°47' W 079°57'0 0.0
2018-Jul-10 08:29N 32°47' W 079°57'0 0.0
2018-Jul-10 07:59N 32°47' W 079°57'0 0.0
2018-Jul-10 07:29N 32°47' W 079°57'0 0.0
2018-Jul-10 06:56N 32°47' W 079°57'0 0.0
2018-Jul-10 06:29N 32°47' W 079°57'0 0.0
2018-Jul-10 05:59N 32°47' W 079°57'0 0.0
2018-Jul-10 05:29N 32°47' W 079°57'0 0.0
2018-Jul-10 04:59N 32°47' W 079°57'0 0.0
2018-Jul-10 04:28N 32°47' W 079°57'0 0.0
2018-Jul-10 03:59N 32°47' W 079°57'0 0.0
2018-Jul-10 03:28N 32°47' W 079°57'0 0.0
2018-Jul-10 02:58N 32°47' W 079°57'0 0.0
2018-Jul-10 02:28N 32°47' W 079°57'0 0.0
2018-Jul-10 01:59N 32°47' W 079°57'0 0.0
2018-Jul-10 01:28N 32°47' W 079°57'0 0.0
2018-Jul-10 00:58N 32°47' W 079°57'0 0.0
2018-Jul-10 00:28N 32°47' W 079°57'0 0.0
2018-Jul-09 23:58N 32°47' W 079°57'0 0.0
2018-Jul-09 21:04N 32°47' W 079°57'0 0.0
2018-Jul-09 20:55N 32°47' W 079°57'0 0.0
2018-Jul-09 20:28N 32°47' W 079°57'0 0.0
2018-Jul-09 19:59N 32°47' W 079°57'0 0.0
2018-Jul-09 19:28N 32°47' W 079°57'0 0.0
2018-Jul-09 18:58N 32°47' W 079°57'0 0.0
2018-Jul-09 18:28N 32°47' W 079°57'0 0.0
2018-Jul-09 17:59N 32°47' W 079°57'0 0.0
2018-Jul-09 17:28N 32°47' W 079°57'0 0.0
2018-Jul-09 16:58N 32°47' W 079°57'0 0.0
2018-Jul-09 16:28N 32°47' W 079°57'0 0.0
2018-Jul-09 15:58N 32°47' W 079°57'0 0.0
2018-Jul-09 15:28N 32°47' W 079°57'0 0.0
2018-Jul-09 14:58N 32°47' W 079°57'0 0.0
2018-Jul-09 14:28N 32°47' W 079°57'0 0.0
2018-Jul-09 13:58N 32°47' W 079°57'0 0.0
2018-Jul-09 13:28N 32°47' W 079°57'0 0.0
2018-Jul-09 12:58N 32°47' W 079°57'0 0.0
2018-Jul-09 12:28N 32°47' W 079°57'0 0.0
2018-Jul-09 11:55N 32°47' W 079°57'0 0.0
2018-Jul-09 11:28N 32°47' W 079°57'0 0.0
2018-Jul-09 10:58N 32°47' W 079°57'0 0.0
2018-Jul-09 10:28N 32°47' W 079°57'0 0.0
2018-Jul-09 09:58N 32°47' W 079°57'0 0.0
2018-Jul-09 09:28N 32°47' W 079°57'0 0.0
2018-Jul-09 08:58N 32°47' W 079°57'0 0.0
2018-Jul-09 08:28N 32°47' W 079°57'0 0.0
2018-Jul-09 07:58N 32°47' W 079°57'0 0.0
2018-Jul-09 07:28N 32°47' W 079°57'0 0.0
2018-Jul-09 06:58N 32°47' W 079°57'0 0.0
2018-Jul-09 06:28N 32°47' W 079°57'0 0.0
2018-Jul-09 05:58N 32°47' W 079°57'0 0.0
2018-Jul-09 05:28N 32°47' W 079°57'0 0.0
2018-Jul-09 04:58N 32°47' W 079°57'0 0.0
2018-Jul-09 04:28N 32°47' W 079°57'0 0.0
2018-Jul-09 03:58N 32°47' W 079°57'0 0.0
2018-Jul-09 03:28N 32°47' W 079°57'0 0.0
2018-Jul-09 02:58N 32°47' W 079°57'0 0.0
2018-Jul-09 02:28N 32°47' W 079°57'0 0.0
2018-Jul-09 01:58N 32°47' W 079°57'0 0.0
2018-Jul-09 01:28N 32°47' W 079°57'0 0.0
2018-Jul-09 00:58N 32°47' W 079°57'0 0.0
2018-Jul-09 00:28N 32°47' W 079°57'0 0.0
2018-Jul-08 23:58N 32°47' W 079°57'0 0.0
2018-Jul-08 23:28N 32°47' W 079°57'0 0.0
2018-Jul-08 22:58N 32°47' W 079°57'0 0.0
2018-Jul-08 22:28N 32°47' W 079°57'0 0.0
2018-Jul-08 21:55N 32°47' W 079°57'0 0.0
2018-Jul-08 21:28N 32°47' W 079°57'0 0.0
2018-Jul-08 20:58N 32°47' W 079°57'0 0.0
2018-Jul-08 20:28N 32°47' W 079°57'0 0.0
2018-Jul-08 19:58N 32°47' W 079°57'0 0.0
2018-Jul-08 19:28N 32°47' W 079°57'0 0.0
2018-Jul-08 18:58N 32°47' W 079°57'0 0.0
2018-Jul-08 18:28N 32°47' W 079°57'0 0.0
2018-Jul-08 17:58N 32°47' W 079°57'0 0.0
2018-Jul-08 17:25N 32°47' W 079°57'0 0.0
2018-Jul-08 16:58N 32°47' W 079°57'0 0.0
2018-Jul-08 16:28N 32°47' W 079°57'0 0.0
2018-Jul-08 15:58N 32°47' W 079°57'0 0.0
2018-Jul-08 15:28N 32°47' W 079°57'0 0.0
2018-Jul-08 14:58N 32°47' W 079°57'0 0.0
2018-Jul-08 14:28N 32°47' W 079°57'0 0.0
2018-Jul-08 13:58N 32°47' W 079°57'0 0.0
2018-Jul-08 13:28N 32°47' W 079°57'0 0.0
2018-Jul-08 12:55N 32°47' W 079°57'0 0.0
2018-Jul-08 12:28N 32°47' W 079°57'0 0.0
2018-Jul-08 11:58N 32°47' W 079°57'0 0.0
2018-Jul-08 11:28N 32°47' W 079°57'0 0.0
2018-Jul-08 10:58N 32°47' W 079°57'0 0.0
2018-Jul-08 10:28N 32°47' W 079°57'0 0.0
2018-Jul-08 09:58N 32°47' W 079°57'0 0.0
2018-Jul-08 09:28N 32°47' W 079°57'0 0.0
2018-Jul-08 08:58N 32°47' W 079°57'0 0.0
2018-Jul-08 08:28N 32°47' W 079°57'0 0.0
2018-Jul-08 07:58N 32°47' W 079°57'0 0.0
2018-Jul-08 07:28N 32°47' W 079°57'0 0.0
2018-Jul-08 06:58N 32°47' W 079°57'0 0.0
2018-Jul-08 06:28N 32°47' W 079°57'0 0.0
2018-Jul-08 05:58N 32°47' W 079°57'0 0.0
2018-Jul-08 05:28N 32°47' W 079°57'0 0.0
2018-Jul-08 04:58N 32°47' W 079°57'0 0.1
2018-Jul-08 04:30N 32°47' W 079°57'  

Dump ship's entire track history